createdAt,value
2019-05-17T00:00:40.390Z,29.70
2019-05-17T00:01:40.344Z,30.80
2019-05-17T00:02:40.291Z,30.70
2019-05-17T00:03:40.244Z,30.20
2019-05-17T00:04:40.196Z,31.50
2019-05-17T00:05:40.147Z,30.70
2019-05-17T00:06:40.099Z,29.70
2019-05-17T00:07:40.054Z,30.50
2019-05-17T00:08:40.005Z,31.20
2019-05-17T00:09:39.959Z,33.30
2019-05-17T00:10:39.915Z,32.20
2019-05-17T00:11:39.864Z,30.30
2019-05-17T00:12:39.818Z,30.00
2019-05-17T00:13:39.776Z,31.10
2019-05-17T00:14:39.724Z,31.20
2019-05-17T00:15:39.678Z,29.60
2019-05-17T00:16:39.630Z,30.60
2019-05-17T00:17:39.584Z,28.80
2019-05-17T00:18:39.540Z,29.80
2019-05-17T00:19:39.484Z,28.20
2019-05-17T00:20:39.440Z,28.80
2019-05-17T00:21:39.394Z,28.50
2019-05-17T00:22:39.344Z,28.60
2019-05-17T00:23:39.295Z,28.60
2019-05-17T00:24:39.252Z,29.00
2019-05-17T00:25:39.203Z,28.60
2019-05-17T00:26:39.856Z,28.90
2019-05-17T00:27:39.108Z,28.90
2019-05-17T00:28:39.067Z,29.20
2019-05-17T00:29:39.012Z,27.50
2019-05-17T00:30:38.965Z,26.40
2019-05-17T00:31:38.920Z,28.30
2019-05-17T00:32:38.872Z,27.50
2019-05-17T00:33:38.828Z,28.20
2019-05-17T00:34:38.775Z,28.40
2019-05-17T00:35:38.730Z,27.70
2019-05-17T00:36:38.686Z,27.10
2019-05-17T00:37:38.637Z,26.50
2019-05-17T00:38:47.589Z,30.50
2019-05-17T00:39:38.539Z,27.60
2019-05-17T00:40:38.494Z,27.80
2019-05-17T00:41:38.449Z,27.90
2019-05-17T00:42:38.398Z,28.10
2019-05-17T00:43:38.354Z,27.30
2019-05-17T00:44:38.305Z,28.60
2019-05-17T00:45:38.260Z,28.30
2019-05-17T00:46:38.213Z,26.20
2019-05-17T00:47:38.166Z,25.60
2019-05-17T00:48:38.115Z,29.20
2019-05-17T00:49:38.067Z,27.30
2019-05-17T00:50:38.263Z,27.70
2019-05-17T00:51:37.974Z,27.60
2019-05-17T00:52:37.925Z,27.90
2019-05-17T00:53:37.883Z,28.90
2019-05-17T00:54:37.833Z,26.90
2019-05-17T00:55:37.787Z,26.70
2019-05-17T00:56:37.743Z,28.70
2019-05-17T00:57:37.695Z,28.00
2019-05-17T00:58:37.646Z,26.60
2019-05-17T00:59:37.593Z,28.30
2019-05-17T01:00:38.028Z,29.10
2019-05-17T01:01:37.507Z,25.90
2019-05-17T01:02:37.454Z,27.60
2019-05-17T01:03:37.409Z,27.70
2019-05-17T01:04:37.359Z,26.70
2019-05-17T01:05:37.315Z,28.20
2019-05-17T01:06:37.659Z,28.70
2019-05-17T01:07:37.807Z,27.10
2019-05-17T01:08:37.443Z,29.20
2019-05-17T01:09:37.121Z,30.00
2019-05-17T01:10:37.182Z,27.70
2019-05-17T01:11:37.035Z,27.60
2019-05-17T01:12:36.985Z,26.80
2019-05-17T01:13:37.410Z,28.50
2019-05-17T01:14:37.406Z,28.10
2019-05-17T01:15:37.169Z,27.80
2019-05-17T01:16:36.906Z,28.30
2019-05-17T01:17:36.788Z,30.00
2019-05-17T01:18:36.696Z,30.00
2019-05-17T01:19:36.704Z,30.10
2019-05-17T01:20:37.150Z,30.90
2019-05-17T01:21:36.864Z,32.20
2019-05-17T01:22:36.838Z,30.20
2019-05-17T01:23:36.460Z,30.00
2019-05-17T01:24:36.958Z,30.70
2019-05-17T01:25:36.848Z,29.30
2019-05-17T01:26:37.377Z,28.30
2019-05-17T01:27:38.200Z,29.80
2019-05-17T01:28:36.490Z,31.10
2019-05-17T01:29:36.470Z,30.60
2019-05-17T01:30:37.529Z,32.30
2019-05-17T01:31:37.299Z,31.20
2019-05-17T01:32:37.375Z,32.50
2019-05-17T01:33:36.698Z,32.50
2019-05-17T01:34:37.630Z,31.80
2019-05-17T01:35:37.415Z,33.10
2019-05-17T01:36:37.025Z,30.20
2019-05-17T01:37:36.978Z,31.40
2019-05-17T01:38:37.796Z,29.40
2019-05-17T01:39:37.472Z,31.10
2019-05-17T01:40:37.304Z,31.90
2019-05-17T01:41:37.248Z,31.30
2019-05-17T01:42:37.402Z,32.00
2019-05-17T01:43:36.843Z,30.80
2019-05-17T01:44:36.779Z,30.50
2019-05-17T01:45:36.491Z,31.80
2019-05-17T01:46:37.001Z,30.00
2019-05-17T01:47:36.867Z,33.00
2019-05-17T01:49:36.347Z,31.80
2019-05-17T01:50:37.309Z,31.70
2019-05-17T01:51:37.002Z,31.10
2019-05-17T01:52:36.955Z,32.00
2019-05-17T01:53:36.463Z,31.20
2019-05-17T01:54:36.279Z,31.10
2019-05-17T01:55:37.167Z,31.40
2019-05-17T01:56:36.890Z,32.70
2019-05-17T01:57:37.047Z,33.00
2019-05-17T01:58:36.761Z,32.00
2019-05-17T01:59:37.125Z,31.50
2019-05-17T02:00:37.296Z,32.30
2019-05-17T02:01:36.883Z,31.60
2019-05-17T02:02:36.575Z,32.10
2019-05-17T02:03:34.571Z,30.40
2019-05-17T02:04:34.522Z,32.20
2019-05-17T02:05:36.902Z,32.50
2019-05-17T02:06:36.642Z,33.60
2019-05-17T02:07:34.376Z,30.30
2019-05-17T02:08:34.333Z,34.20
2019-05-17T02:09:40.523Z,30.70
2019-05-17T02:10:34.235Z,33.40
2019-05-17T02:11:34.187Z,32.20
2019-05-17T02:12:34.141Z,31.20
2019-05-17T02:13:34.096Z,32.70
2019-05-17T02:14:34.045Z,33.90
2019-05-17T02:15:33.999Z,33.40
2019-05-17T02:16:33.952Z,35.40
2019-05-17T02:17:33.907Z,32.80
2019-05-17T02:18:33.857Z,32.20
2019-05-17T02:19:33.807Z,33.20
2019-05-17T02:20:33.767Z,33.40
2019-05-17T02:21:36.649Z,32.30
2019-05-17T02:22:33.667Z,34.60
2019-05-17T02:23:33.621Z,32.60
2019-05-17T02:24:33.575Z,33.10
2019-05-17T02:25:33.524Z,34.00
2019-05-17T02:26:33.480Z,33.30
2019-05-17T02:27:38.222Z,34.10
2019-05-17T02:28:33.382Z,33.20
2019-05-17T02:29:33.336Z,31.20
2019-05-17T02:30:33.921Z,33.90
2019-05-17T02:31:33.242Z,33.80
2019-05-17T02:32:33.803Z,31.50
2019-05-17T02:33:33.439Z,35.20
2019-05-17T02:34:33.884Z,33.70
2019-05-17T02:35:33.791Z,33.50
2019-05-17T02:36:33.357Z,34.20
2019-05-17T02:37:33.555Z,33.20
2019-05-17T02:38:33.561Z,33.30
2019-05-17T02:39:32.984Z,33.60
2019-05-17T02:40:33.907Z,34.40
2019-05-17T02:41:33.269Z,32.80
2019-05-17T02:42:33.489Z,33.00
2019-05-17T02:43:33.702Z,34.30
2019-05-17T02:44:33.534Z,32.90
2019-05-17T02:45:33.325Z,35.60
2019-05-17T02:46:33.811Z,35.90
2019-05-17T02:47:33.720Z,32.20
2019-05-17T02:48:33.731Z,34.90
2019-05-17T02:49:33.212Z,33.90
2019-05-17T02:50:33.085Z,32.40
2019-05-17T02:51:32.608Z,33.60
2019-05-17T02:52:33.027Z,34.00
2019-05-17T02:53:33.507Z,33.80
2019-05-17T02:54:32.826Z,32.10
2019-05-17T02:55:32.608Z,34.10
2019-05-17T02:56:32.773Z,33.50
2019-05-17T02:57:34.692Z,35.20
2019-05-17T02:58:33.053Z,33.30
2019-05-17T02:59:33.126Z,34.00
2019-05-17T03:00:33.766Z,33.70
2019-05-17T03:01:33.163Z,34.90
2019-05-17T03:02:34.081Z,34.80
2019-05-17T03:03:32.408Z,35.70
2019-05-17T03:05:33.736Z,34.60
2019-05-17T03:06:32.925Z,35.60
2019-05-17T03:07:32.585Z,33.60
2019-05-17T03:10:57.068Z,33.80
2019-05-17T03:11:57.334Z,34.00
2019-05-17T03:12:56.973Z,34.60
2019-05-17T03:13:56.923Z,34.70
2019-05-17T03:17:47.489Z,34.40
2019-05-17T03:18:47.444Z,33.90
2019-05-17T03:19:47.396Z,34.90
2019-05-17T03:20:47.356Z,36.30
2019-05-17T03:21:47.301Z,35.10
2019-05-17T03:22:47.256Z,35.40
2019-05-17T03:23:47.206Z,35.20
2019-05-17T03:24:47.163Z,36.00
2019-05-17T03:25:47.112Z,38.70
2019-05-17T03:26:47.068Z,36.30
2019-05-17T03:27:47.016Z,35.20
2019-05-17T03:28:46.971Z,35.00
2019-05-17T03:29:46.920Z,34.80
2019-05-17T03:30:47.490Z,35.10
2019-05-17T03:31:53.369Z,35.30
2019-05-17T03:32:48.516Z,34.90
2019-05-17T03:33:46.771Z,36.80
2019-05-17T03:34:46.684Z,34.20
2019-05-17T03:35:46.649Z,36.90
2019-05-17T03:36:47.376Z,35.70
2019-05-17T03:37:46.541Z,37.50
2019-05-17T03:38:46.493Z,36.30
2019-05-17T03:39:46.450Z,35.20
2019-05-17T03:41:07.877Z,35.40
2019-05-17T03:41:46.351Z,34.70
2019-05-17T03:42:46.304Z,33.00
2019-05-17T03:43:46.261Z,35.10
2019-05-17T03:44:46.213Z,34.60
2019-05-17T03:45:46.168Z,33.50
2019-05-17T03:46:46.115Z,35.20
2019-05-17T03:47:46.075Z,34.70
2019-05-17T03:48:46.024Z,34.10
2019-05-17T03:49:45.974Z,34.50
2019-05-17T03:50:45.924Z,33.30
2019-05-17T03:51:45.877Z,35.60
2019-05-17T03:52:45.833Z,34.30
2019-05-17T03:53:45.784Z,33.20
2019-05-17T03:54:45.734Z,33.30
2019-05-17T03:55:45.692Z,34.50
2019-05-17T03:56:45.641Z,35.30
2019-05-17T03:57:45.598Z,33.40
2019-05-17T03:58:45.548Z,33.30
2019-05-17T03:59:45.497Z,33.80
2019-05-17T04:00:45.461Z,33.50
2019-05-17T04:01:45.427Z,33.90
2019-05-17T04:02:45.355Z,32.20
2019-05-17T04:03:45.313Z,34.50
2019-05-17T04:04:45.263Z,34.20
2019-05-17T04:05:45.213Z,32.90
2019-05-17T04:06:45.170Z,32.30
2019-05-17T04:07:45.128Z,33.50
2019-05-17T04:08:45.088Z,32.90
2019-05-17T04:09:45.034Z,34.30
2019-05-17T04:10:44.979Z,33.90
2019-05-17T04:11:44.932Z,33.10
2019-05-17T04:12:44.886Z,33.80
2019-05-17T04:13:44.837Z,31.30
2019-05-17T04:14:44.794Z,33.40
2019-05-17T04:15:44.743Z,31.40
2019-05-17T04:16:44.697Z,33.80
2019-05-17T04:17:44.698Z,32.20
2019-05-17T04:18:44.600Z,30.80
2019-05-17T04:19:44.551Z,31.70
2019-05-17T04:20:44.505Z,31.10
2019-05-17T04:21:44.459Z,30.70
2019-05-17T04:22:44.819Z,31.60
2019-05-17T04:23:44.361Z,33.30
2019-05-17T04:24:44.320Z,31.40
2019-05-17T04:25:44.268Z,31.30
2019-05-17T04:26:44.220Z,31.00
2019-05-17T04:27:44.326Z,31.00
2019-05-17T04:28:44.358Z,30.20
2019-05-17T04:29:44.082Z,30.00
2019-05-17T04:30:44.032Z,31.70
2019-05-17T04:31:44.046Z,32.30
2019-05-17T04:32:44.615Z,30.40
2019-05-17T04:33:43.889Z,33.80
2019-05-17T04:34:43.977Z,29.30
2019-05-17T04:35:43.795Z,31.10
2019-05-17T04:36:43.749Z,30.90
2019-05-17T04:37:44.989Z,30.00
2019-05-17T04:38:43.829Z,32.80
2019-05-17T04:39:43.610Z,31.30
2019-05-17T04:40:43.560Z,31.10
2019-05-17T04:41:49.846Z,33.00
2019-05-17T04:42:44.262Z,30.10
2019-05-17T04:43:43.415Z,31.50
2019-05-17T04:44:43.448Z,31.50
2019-05-17T04:45:43.333Z,29.60
2019-05-17T04:46:43.486Z,30.40
2019-05-17T04:47:44.112Z,30.60
2019-05-17T04:48:44.018Z,32.00
2019-05-17T04:49:44.053Z,30.60
2019-05-17T04:50:43.188Z,31.00
2019-05-17T04:51:44.085Z,30.30
2019-05-17T04:52:43.581Z,30.60
2019-05-17T04:53:43.246Z,30.90
2019-05-17T04:54:42.898Z,29.90
2019-05-17T04:55:43.342Z,31.30
2019-05-17T04:56:42.815Z,30.50
2019-05-17T04:57:43.963Z,31.10
2019-05-17T04:58:43.080Z,32.00
2019-05-17T04:59:43.485Z,30.80
2019-05-17T05:01:43.561Z,31.30
2019-05-17T05:02:43.668Z,30.10
2019-05-17T05:03:43.099Z,30.60
2019-05-17T05:04:43.482Z,31.10
2019-05-17T05:05:42.963Z,30.80
2019-05-17T05:06:43.604Z,30.50
2019-05-17T05:07:43.220Z,31.80
2019-05-17T05:08:42.661Z,30.80
2019-05-17T05:09:43.062Z,31.10
2019-05-17T05:10:42.865Z,31.00
2019-05-17T05:11:53.298Z,29.90
2019-05-17T05:12:43.423Z,30.20
2019-05-17T05:13:42.656Z,30.90
2019-05-17T05:14:43.120Z,30.40
2019-05-17T05:15:44.062Z,30.00
2019-05-17T05:16:42.465Z,29.60
2019-05-17T05:17:42.851Z,30.80
2019-05-17T05:18:42.195Z,29.40
2019-05-17T05:19:42.238Z,31.60
2019-05-17T05:20:43.665Z,28.90
2019-05-17T05:21:42.683Z,30.50
2019-05-17T05:22:42.652Z,29.50
2019-05-17T05:23:42.472Z,29.60
2019-05-17T05:24:42.370Z,28.00
2019-05-17T05:25:42.982Z,29.50
2019-05-17T05:26:42.484Z,28.40
2019-05-17T05:27:42.792Z,27.70
2019-05-17T05:28:41.954Z,27.80
2019-05-17T05:29:41.724Z,30.20
2019-05-17T05:30:42.179Z,28.20
2019-05-17T05:31:42.757Z,28.50
2019-05-17T05:32:42.697Z,27.30
2019-05-17T05:33:41.971Z,27.20
2019-05-17T05:34:42.975Z,28.90
2019-05-17T05:35:42.490Z,27.30
2019-05-17T05:36:41.852Z,25.80
2019-05-17T05:37:42.478Z,28.50
2019-05-17T05:38:42.295Z,28.80
2019-05-17T05:39:41.433Z,28.10
2019-05-17T05:40:41.442Z,28.10
2019-05-17T05:41:42.671Z,26.20
2019-05-17T05:42:42.599Z,27.40
2019-05-17T05:43:41.991Z,26.40
2019-05-17T05:44:41.537Z,25.40
2019-05-17T05:45:41.707Z,26.80
2019-05-17T05:46:42.193Z,27.40
2019-05-17T05:47:41.509Z,26.50
2019-05-17T05:48:41.581Z,27.00
2019-05-17T05:49:42.466Z,24.20
2019-05-17T05:50:42.853Z,24.10
2019-05-17T05:51:42.269Z,24.80
2019-05-17T05:52:42.273Z,25.60
2019-05-17T05:53:41.947Z,25.70
2019-05-17T05:54:41.309Z,25.20
2019-05-17T05:55:42.473Z,24.50
2019-05-17T05:56:42.259Z,24.60
2019-05-17T05:57:42.118Z,24.80
2019-05-17T05:58:39.879Z,23.80
2019-05-17T05:59:42.359Z,24.20
2019-05-17T06:00:42.335Z,25.40
2019-05-17T06:02:41.884Z,22.90
2019-05-17T06:03:41.422Z,26.40
2019-05-17T06:04:39.599Z,25.10
2019-05-17T06:05:41.957Z,24.50
2019-05-17T06:06:41.487Z,27.00
2019-05-17T06:07:41.505Z,25.00
2019-05-17T06:08:41.378Z,24.40
2019-05-17T06:09:39.369Z,22.60
2019-05-17T06:10:40.197Z,22.70
2019-05-17T06:11:41.479Z,24.40
2019-05-17T06:12:39.224Z,22.80
2019-05-17T06:13:39.180Z,23.90
2019-05-17T06:14:39.125Z,22.60
2019-05-17T06:15:39.081Z,23.80
2019-05-17T06:16:39.032Z,23.00
2019-05-17T06:17:38.996Z,24.40
2019-05-17T06:18:38.942Z,22.40
2019-05-17T06:19:38.894Z,23.80
2019-05-17T06:20:38.855Z,23.60
2019-05-17T06:21:38.802Z,22.50
2019-05-17T06:22:38.752Z,22.40
2019-05-17T06:23:38.715Z,23.00
2019-05-17T06:24:38.658Z,22.30
2019-05-17T06:25:38.616Z,21.90
2019-05-17T06:26:38.568Z,22.20
2019-05-17T06:27:38.522Z,22.20
2019-05-17T06:28:38.479Z,23.00
2019-05-17T06:29:38.427Z,21.50
2019-05-17T06:30:38.382Z,22.70
2019-05-17T06:31:38.332Z,24.60
2019-05-17T06:32:38.287Z,23.20
2019-05-17T06:33:38.259Z,22.20
2019-05-17T06:34:38.196Z,21.70
2019-05-17T06:35:38.162Z,21.60
2019-05-17T06:36:38.102Z,21.70
2019-05-17T06:37:38.053Z,23.10
2019-05-17T06:38:38.010Z,21.00
2019-05-17T06:39:37.963Z,21.50
2019-05-17T06:40:37.916Z,20.80
2019-05-17T06:41:37.865Z,20.60
2019-05-17T06:42:41.326Z,21.80
2019-05-17T06:43:38.564Z,21.40
2019-05-17T06:44:37.737Z,21.80
2019-05-17T06:45:37.683Z,23.10
2019-05-17T06:46:37.640Z,20.00
2019-05-17T06:47:37.590Z,20.30
2019-05-17T06:48:37.546Z,21.10
2019-05-17T06:49:37.494Z,21.80
2019-05-17T06:50:37.453Z,20.80
2019-05-17T06:51:37.404Z,22.30
2019-05-17T06:52:37.363Z,19.50
2019-05-17T06:53:37.311Z,21.60
2019-05-17T06:54:37.261Z,22.80
2019-05-17T06:55:37.222Z,19.90
2019-05-17T06:56:37.175Z,20.60
2019-05-17T06:57:37.121Z,20.20
2019-05-17T06:58:37.078Z,20.30
2019-05-17T06:59:37.030Z,19.20
2019-05-17T07:00:36.983Z,20.00
2019-05-17T07:01:36.935Z,20.80
2019-05-17T07:02:36.891Z,20.80
2019-05-17T07:03:39.944Z,18.00
2019-05-17T07:04:36.798Z,19.70
2019-05-17T07:05:36.752Z,19.50
2019-05-17T07:06:36.709Z,18.50
2019-05-17T07:07:36.661Z,18.70
2019-05-17T07:08:36.615Z,16.40
2019-05-17T07:09:36.566Z,17.50
2019-05-17T07:10:36.521Z,18.20
2019-05-17T07:11:36.474Z,17.50
2019-05-17T07:12:36.427Z,18.10
2019-05-17T07:13:36.381Z,17.20
2019-05-17T07:14:36.335Z,18.20
2019-05-17T07:15:44.775Z,19.40
2019-05-17T07:16:36.245Z,18.00
2019-05-17T07:17:36.197Z,17.00
2019-05-17T07:18:36.151Z,18.50
2019-05-17T07:19:36.102Z,17.10
2019-05-17T07:20:36.075Z,17.70
2019-05-17T07:21:36.008Z,16.80
2019-05-17T07:22:35.966Z,16.20
2019-05-17T07:23:35.921Z,14.20
2019-05-17T07:24:35.872Z,16.00
2019-05-17T07:25:35.825Z,16.20
2019-05-17T07:26:35.777Z,14.50
2019-05-17T07:27:41.261Z,14.20
2019-05-17T07:28:35.690Z,13.60
2019-05-17T07:29:35.645Z,13.30
2019-05-17T07:30:35.594Z,13.90
2019-05-17T07:31:35.550Z,13.50
2019-05-17T07:32:35.499Z,14.00
2019-05-17T07:33:35.456Z,14.30
2019-05-17T07:34:35.413Z,13.40
2019-05-17T07:35:35.364Z,13.80
2019-05-17T07:36:35.316Z,15.30
2019-05-17T07:37:35.270Z,13.70
2019-05-17T07:38:35.225Z,14.80
2019-05-17T07:39:35.181Z,13.40
2019-05-17T07:40:35.134Z,14.20
2019-05-17T07:41:35.083Z,14.20
2019-05-17T07:42:35.042Z,13.60
2019-05-17T07:43:34.993Z,13.10
2019-05-17T07:44:34.951Z,12.80
2019-05-17T07:45:34.900Z,13.10
2019-05-17T07:46:34.853Z,14.00
2019-05-17T07:47:34.809Z,12.50
2019-05-17T07:48:34.764Z,13.00
2019-05-17T07:49:34.718Z,14.00
2019-05-17T07:50:34.672Z,13.60
2019-05-17T07:51:34.623Z,12.60
2019-05-17T07:52:34.579Z,13.60
2019-05-17T07:53:34.531Z,13.10
2019-05-17T07:54:34.487Z,12.40
2019-05-17T07:55:34.445Z,12.70
2019-05-17T07:56:34.398Z,12.70
2019-05-17T07:57:34.354Z,12.00
2019-05-17T07:58:34.304Z,12.90
2019-05-17T07:59:34.260Z,11.20
2019-05-17T08:00:34.209Z,10.80
2019-05-17T08:01:34.166Z,11.30
2019-05-17T08:02:34.120Z,11.30
2019-05-17T08:03:34.071Z,11.60
2019-05-17T08:04:34.040Z,11.10
2019-05-17T08:05:33.980Z,12.00
2019-05-17T08:06:33.938Z,11.10
2019-05-17T08:07:33.891Z,11.50
2019-05-17T08:08:33.843Z,12.00
2019-05-17T08:09:33.796Z,10.80
2019-05-17T08:10:33.750Z,10.60
2019-05-17T08:11:33.705Z,12.10
2019-05-17T08:12:33.661Z,11.30
2019-05-17T08:13:33.882Z,10.20
2019-05-17T08:14:33.746Z,10.90
2019-05-17T08:15:33.520Z,10.40
2019-05-17T08:16:33.476Z,11.00
2019-05-17T08:17:33.434Z,10.10
2019-05-17T08:18:33.383Z,10.00
2019-05-17T08:19:33.339Z,10.50
2019-05-17T08:20:33.300Z,9.80
2019-05-17T08:21:33.248Z,10.40
2019-05-17T08:22:33.199Z,9.90
2019-05-17T08:23:33.151Z,9.10
2019-05-17T08:24:33.110Z,9.70
2019-05-17T08:25:33.059Z,9.10
2019-05-17T08:26:33.014Z,9.20
2019-05-17T08:27:32.984Z,9.30
2019-05-17T08:28:32.926Z,8.90
2019-05-17T08:29:32.879Z,8.80
2019-05-17T08:30:32.833Z,9.10
2019-05-17T08:31:32.788Z,9.30
2019-05-17T08:32:32.743Z,8.70
2019-05-17T08:33:32.696Z,8.50
2019-05-17T08:34:32.649Z,8.50
2019-05-17T08:35:32.606Z,8.30
2019-05-17T08:36:32.558Z,8.50
2019-05-17T08:37:32.514Z,7.60
2019-05-17T08:39:32.424Z,8.80
2019-05-17T08:40:32.377Z,9.00
2019-05-17T08:41:32.331Z,8.80
2019-05-17T08:42:32.287Z,8.50
2019-05-17T08:43:42.516Z,8.50
2019-05-17T08:44:32.193Z,8.00
2019-05-17T08:45:32.150Z,8.00
2019-05-17T08:46:32.105Z,8.00
2019-05-17T08:47:32.061Z,7.90
2019-05-17T08:48:32.013Z,8.00
2019-05-17T08:49:31.967Z,11.00
2019-05-17T08:50:31.923Z,8.40
2019-05-17T08:51:31.878Z,7.80
2019-05-17T08:52:31.831Z,7.90
2019-05-17T08:53:31.782Z,8.20
2019-05-17T08:54:31.742Z,7.80
2019-05-17T08:55:31.694Z,7.30
2019-05-17T08:56:31.650Z,7.30
2019-05-17T08:57:31.605Z,7.90
2019-05-17T08:58:31.558Z,6.90
2019-05-17T08:59:31.515Z,6.80
2019-05-17T09:00:31.662Z,7.00
2019-05-17T09:01:31.420Z,7.10
2019-05-17T09:02:31.375Z,6.30
2019-05-17T09:03:31.332Z,6.30
2019-05-17T09:04:31.301Z,6.00
2019-05-17T09:05:31.241Z,6.50
2019-05-17T09:06:31.195Z,6.40
2019-05-17T09:07:31.179Z,5.90
2019-05-17T09:08:31.109Z,6.60
2019-05-17T09:09:31.548Z,6.50
2019-05-17T09:10:31.016Z,6.20
2019-05-17T09:11:30.977Z,6.20
2019-05-17T09:12:30.926Z,6.80
2019-05-17T09:13:30.880Z,6.50
2019-05-17T09:14:30.839Z,6.20
2019-05-17T09:15:30.792Z,6.40
2019-05-17T09:16:30.946Z,6.40
2019-05-17T09:17:30.700Z,5.90
2019-05-17T09:18:30.650Z,5.80
2019-05-17T09:19:30.611Z,5.60
2019-05-17T09:20:30.561Z,5.20
2019-05-17T09:21:31.366Z,4.80
2019-05-17T09:22:30.675Z,5.60
2019-05-17T09:23:30.704Z,5.50
2019-05-17T09:24:30.379Z,5.70
2019-05-17T09:25:30.428Z,5.50
2019-05-17T09:26:30.290Z,6.00
2019-05-17T09:27:30.243Z,5.80
2019-05-17T09:28:30.273Z,5.60
2019-05-17T09:29:30.156Z,5.90
2019-05-17T09:30:31.328Z,6.50
2019-05-17T09:31:30.065Z,6.10
2019-05-17T09:32:30.021Z,7.50
2019-05-17T09:33:30.334Z,6.60
2019-05-17T09:34:30.095Z,6.00
2019-05-17T09:35:30.180Z,6.20
2019-05-17T09:36:30.401Z,5.40
2019-05-17T09:37:30.504Z,5.90
2019-05-17T09:38:29.766Z,6.20
2019-05-17T09:39:29.703Z,6.10
2019-05-17T09:40:29.658Z,5.80
2019-05-17T09:41:29.610Z,6.90
2019-05-17T09:42:30.148Z,7.00
2019-05-17T09:43:29.778Z,6.10
2019-05-17T09:44:29.953Z,6.80
2019-05-17T09:45:30.663Z,6.60
2019-05-17T09:46:30.311Z,6.80
2019-05-17T09:47:30.074Z,6.30
2019-05-17T09:48:30.691Z,6.60
2019-05-17T09:49:29.932Z,6.40
2019-05-17T09:50:29.425Z,6.10
2019-05-17T09:51:30.309Z,6.20
2019-05-17T09:52:29.372Z,6.10
2019-05-17T09:53:30.658Z,5.40
2019-05-17T09:54:41.556Z,5.20
2019-05-17T09:55:30.083Z,5.90
2019-05-17T09:56:30.167Z,5.30
2019-05-17T09:57:29.809Z,5.90
2019-05-17T09:58:29.929Z,5.10
2019-05-17T09:59:29.793Z,5.20
2019-05-17T10:00:29.717Z,6.60
2019-05-17T10:01:30.301Z,6.20
2019-05-17T10:02:28.663Z,5.70
2019-05-17T10:03:30.729Z,6.80
2019-05-17T10:05:31.097Z,7.00
2019-05-17T10:06:28.486Z,6.50
2019-05-17T10:07:29.883Z,7.00
2019-05-17T10:08:28.392Z,7.50
2019-05-17T10:09:28.351Z,6.60
2019-05-17T10:10:28.300Z,6.80
2019-05-17T10:11:30.610Z,6.30
2019-05-17T10:12:28.208Z,6.10
2019-05-17T10:13:28.166Z,10.00
2019-05-17T10:14:31.178Z,6.10
2019-05-17T10:15:30.110Z,6.40
2019-05-17T10:16:30.609Z,6.30
2019-05-17T10:17:29.394Z,5.90
2019-05-17T10:18:29.593Z,5.60
2019-05-17T10:19:29.424Z,5.50
2019-05-17T10:20:29.255Z,5.60
2019-05-17T10:21:30.204Z,6.90
2019-05-17T10:22:30.206Z,5.50
2019-05-17T10:23:29.825Z,5.60
2019-05-17T10:24:35.968Z,5.40
2019-05-17T10:25:29.492Z,5.30
2019-05-17T10:26:30.202Z,6.20
2019-05-17T10:27:27.531Z,5.80
2019-05-17T10:28:27.490Z,6.40
2019-05-17T10:29:29.854Z,7.00
2019-05-17T10:30:29.803Z,5.70
2019-05-17T10:31:27.349Z,5.80
2019-05-17T10:32:27.309Z,6.00
2019-05-17T10:33:29.322Z,6.10
2019-05-17T10:34:29.325Z,6.20
2019-05-17T10:35:29.423Z,6.40
2019-05-17T10:36:29.280Z,6.00
2019-05-17T10:37:27.083Z,6.20
2019-05-17T10:38:27.036Z,7.10
2019-05-17T10:39:26.991Z,5.50
2019-05-17T10:40:26.947Z,6.10
2019-05-17T10:41:26.901Z,5.40
2019-05-17T10:42:26.856Z,5.40
2019-05-17T10:43:26.809Z,6.10
2019-05-17T10:44:40.999Z,6.00
2019-05-17T10:45:26.720Z,5.60
2019-05-17T10:46:26.676Z,7.20
2019-05-17T10:47:26.627Z,6.20
2019-05-17T10:48:26.584Z,6.00
2019-05-17T10:49:26.541Z,5.50
2019-05-17T10:50:26.491Z,5.30
2019-05-17T10:51:26.448Z,5.80
2019-05-17T10:52:26.400Z,5.50
2019-05-17T10:53:26.359Z,5.30
2019-05-17T10:54:26.326Z,5.30
2019-05-17T10:55:26.264Z,6.40
2019-05-17T10:56:26.222Z,5.00
2019-05-17T10:57:26.176Z,6.00
2019-05-17T10:58:26.132Z,4.60
2019-05-17T10:59:26.085Z,5.40
2019-05-17T11:00:26.046Z,5.50
2019-05-17T11:01:25.995Z,5.20
2019-05-17T11:02:26.008Z,5.50
2019-05-17T11:03:25.904Z,6.20
2019-05-17T11:04:25.861Z,5.90
2019-05-17T11:05:25.817Z,5.80
2019-05-17T11:06:25.769Z,5.80
2019-05-17T11:07:25.727Z,5.30
2019-05-17T11:08:25.678Z,5.90
2019-05-17T11:09:25.651Z,5.50
2019-05-17T11:10:25.591Z,6.80
2019-05-17T11:11:25.551Z,5.90
2019-05-17T11:12:25.504Z,7.20
2019-05-17T11:13:25.454Z,5.90
2019-05-17T11:14:25.413Z,5.70
2019-05-17T11:15:25.363Z,6.00
2019-05-17T11:16:25.321Z,6.70
2019-05-17T11:17:25.270Z,5.90
2019-05-17T11:18:25.233Z,5.40
2019-05-17T11:19:25.195Z,5.10
2019-05-17T11:20:25.135Z,5.60
2019-05-17T11:21:25.090Z,5.20
2019-05-17T11:22:25.047Z,5.30
2019-05-17T11:23:25.004Z,5.00
2019-05-17T11:24:24.960Z,4.60
2019-05-17T11:25:24.936Z,5.10
2019-05-17T11:26:24.867Z,4.30
2019-05-17T11:27:24.820Z,4.20
2019-05-17T11:28:24.776Z,3.90
2019-05-17T11:29:24.732Z,3.70
2019-05-17T11:30:24.684Z,3.70
2019-05-17T11:31:24.643Z,4.50
2019-05-17T11:32:24.597Z,5.90
2019-05-17T11:33:24.556Z,4.30
2019-05-17T11:34:25.621Z,5.20
2019-05-17T11:35:24.883Z,4.30
2019-05-17T11:36:24.459Z,5.10
2019-05-17T11:37:24.373Z,4.10
2019-05-17T11:38:24.327Z,5.00
2019-05-17T11:39:24.278Z,4.30
2019-05-17T11:40:24.235Z,4.70
2019-05-17T11:41:24.191Z,4.20
2019-05-17T11:42:24.144Z,4.40
2019-05-17T11:43:24.170Z,4.80
2019-05-17T11:44:24.051Z,4.40
2019-05-17T11:45:27.970Z,4.20
2019-05-17T11:46:35.716Z,4.30
2019-05-17T11:47:23.917Z,4.20
2019-05-17T11:48:23.871Z,4.20
2019-05-17T11:49:23.822Z,4.70
2019-05-17T11:51:23.735Z,3.60
2019-05-17T11:52:23.685Z,4.60
2019-05-17T11:53:23.646Z,3.90
2019-05-17T11:54:23.595Z,5.00
2019-05-17T11:55:23.550Z,3.70
2019-05-17T11:56:23.510Z,4.20
2019-05-17T11:57:23.460Z,5.30
2019-05-17T11:58:23.416Z,4.50
2019-05-17T11:59:23.369Z,4.30
2019-05-17T12:00:23.326Z,4.20
2019-05-17T12:01:23.278Z,4.40
2019-05-17T12:02:23.235Z,4.60
2019-05-17T12:03:23.193Z,3.80
2019-05-17T12:04:23.141Z,4.70
2019-05-17T12:05:23.098Z,4.80
2019-05-17T12:06:23.055Z,6.70
2019-05-17T12:07:23.059Z,5.50
2019-05-17T12:10:30.185Z,5.60
2019-05-17T12:11:30.079Z,5.20
2019-05-17T12:12:30.063Z,5.20
2019-05-17T12:13:29.989Z,5.60
2019-05-17T12:14:29.945Z,5.20
2019-05-17T12:15:43.561Z,5.20
2019-05-17T12:16:29.855Z,7.30
2019-05-17T12:17:29.811Z,5.50
2019-05-17T12:18:29.764Z,5.40
2019-05-17T12:19:29.720Z,6.00
2019-05-17T12:20:29.673Z,5.90
2019-05-17T12:21:29.631Z,5.70
2019-05-17T12:22:29.580Z,6.30
2019-05-17T12:23:29.535Z,5.50
2019-05-17T12:24:29.492Z,6.30
2019-05-17T12:25:29.449Z,7.90
2019-05-17T12:26:29.402Z,6.10
2019-05-17T12:27:29.358Z,7.00
2019-05-17T12:28:29.311Z,9.00
2019-05-17T12:29:29.269Z,6.10
2019-05-17T12:31:29.171Z,7.50
2019-05-17T12:32:29.130Z,5.80
2019-05-17T12:33:29.097Z,7.30
2019-05-17T12:34:29.041Z,7.60
2019-05-17T12:35:28.987Z,6.60
2019-05-17T12:36:28.945Z,6.20
2019-05-17T12:37:28.900Z,5.60
2019-05-17T12:38:28.856Z,5.90
2019-05-17T12:39:28.808Z,6.00
2019-05-17T12:40:28.775Z,6.00
2019-05-17T12:41:28.716Z,5.90
2019-05-17T12:42:28.671Z,5.80
2019-05-17T12:43:28.625Z,6.50
2019-05-17T12:44:28.575Z,5.90
2019-05-17T12:45:28.533Z,5.70
2019-05-17T12:48:28.397Z,6.10
2019-05-17T12:49:28.354Z,7.80
2019-05-17T12:50:28.305Z,6.20
2019-05-17T12:51:28.271Z,6.30
2019-05-17T12:52:28.220Z,6.60
2019-05-17T12:53:28.172Z,6.80
2019-05-17T12:54:28.123Z,6.30
2019-05-17T12:55:28.075Z,6.40
2019-05-17T12:56:28.034Z,5.90
2019-05-17T12:57:27.990Z,7.90
2019-05-17T12:58:27.942Z,6.70
2019-05-17T12:59:27.904Z,7.70
2019-05-17T13:00:27.855Z,6.70
2019-05-17T13:01:27.805Z,6.30
2019-05-17T13:02:27.762Z,6.50
2019-05-17T13:03:27.719Z,7.20
2019-05-17T13:04:27.670Z,6.30
2019-05-17T13:05:27.624Z,6.70
2019-05-17T13:06:27.575Z,7.50
2019-05-17T13:07:27.544Z,7.40
2019-05-17T13:08:27.490Z,7.00
2019-05-17T13:09:27.446Z,7.00
2019-05-17T13:10:27.401Z,6.30
2019-05-17T13:11:27.353Z,6.20
2019-05-17T13:12:27.310Z,6.20
2019-05-17T13:13:27.263Z,6.50
2019-05-17T13:14:27.214Z,6.80
2019-05-17T13:15:27.168Z,6.40
2019-05-17T13:16:27.124Z,7.10
2019-05-17T13:17:27.079Z,6.90
2019-05-17T13:18:27.030Z,6.60
2019-05-17T13:19:26.984Z,6.90